createdAt,value
2022-11-29T00:01:24.113Z,97752.34
2022-11-29T00:03:52.240Z,97743.75
2022-11-29T00:06:22.467Z,97749.69
2022-11-29T00:08:50.697Z,97749.69
2022-11-29T00:11:40.521Z,97755.03
2022-11-29T00:14:12.323Z,97753.16
2022-11-29T00:16:40.997Z,97748.84
2022-11-29T00:19:09.599Z,97750.25
2022-11-29T00:21:38.063Z,97745.72
2022-11-29T00:24:06.824Z,97738.75
2022-11-29T00:26:34.905Z,97749.22
2022-11-29T00:29:02.839Z,97739.56
2022-11-29T00:31:33.481Z,97745.50
2022-11-29T00:34:03.685Z,97742.22
2022-11-29T00:36:32.230Z,97739.56
2022-11-29T00:39:00.227Z,97737.94
2022-11-29T00:41:28.310Z,97744.91
2022-11-29T00:43:56.502Z,97740.38
2022-11-29T00:46:25.251Z,97740.38
2022-11-29T00:48:54.659Z,97738.50
2022-11-29T00:51:22.491Z,97741.19
2022-11-29T00:53:50.709Z,97748.97
2022-11-29T00:56:18.875Z,97744.91
2022-11-29T00:58:48.544Z,97752.69
2022-11-29T01:01:16.935Z,97743.03
2022-11-29T01:03:44.957Z,97752.47
2022-11-29T01:06:17.041Z,97752.69
2022-11-29T01:08:45.755Z,97750.59
2022-11-29T01:11:15.740Z,97747.94
2022-11-29T01:13:45.415Z,97749.56
2022-11-29T01:16:14.569Z,97753.88
2022-11-29T01:18:43.296Z,97750.59
2022-11-29T01:21:14.924Z,97748.75
2022-11-29T01:23:43.457Z,97752.22
2022-11-29T01:26:14.599Z,97752.22
2022-11-29T01:28:42.923Z,97757.59
2022-11-29T01:31:13.836Z,97759.22
2022-11-29T01:33:42.693Z,97760.84
2022-11-29T01:36:11.535Z,97749.56
2022-11-29T01:38:42.517Z,97760.03
2022-11-29T01:41:14.059Z,97754.69
2022-11-29T01:44:01.329Z,97756.31
2022-11-29T01:46:30.618Z,97757.94
2022-11-29T01:49:01.819Z,97755.25
2022-11-29T01:51:30.807Z,97747.22
2022-11-29T01:54:00.874Z,97751.78
2022-11-29T01:56:31.366Z,97746.19
2022-11-29T01:58:59.592Z,97748.63
2022-11-29T02:01:27.731Z,97753.97
2022-11-29T02:03:56.081Z,97747.81
2022-11-29T02:06:24.768Z,97746.53
2022-11-29T02:08:52.807Z,97742.13
2022-11-29T02:11:47.725Z,97747.69
2022-11-29T02:14:38.753Z,97749.31
2022-11-29T02:17:19.968Z,97747.47
2022-11-29T02:20:23.988Z,97748.50
2022-11-29T02:22:58.914Z,97755.72
2022-11-29T02:25:49.502Z,97755.72
2022-11-29T02:28:49.988Z,97755.72
2022-11-29T02:31:50.141Z,97754.91
2022-11-29T02:34:43.185Z,97752.25
2022-11-29T02:37:24.820Z,97758.16
2022-11-29T02:40:24.626Z,97749.09
2022-11-29T02:43:41.616Z,97756.31
2022-11-29T02:46:21.434Z,97753.41
2022-11-29T02:49:04.349Z,97754.22
2022-11-29T02:51:42.464Z,97763.63
2022-11-29T02:54:19.811Z,97756.66
2022-11-29T02:56:56.223Z,97763.88
2022-11-29T02:59:40.866Z,97762.00
2022-11-29T03:02:19.151Z,97759.34
2022-11-29T03:04:52.095Z,97761.78
2022-11-29T03:07:32.277Z,97764.44
2022-11-29T03:10:10.159Z,97770.63
2022-11-29T03:12:41.916Z,97761.78
2022-11-29T03:15:20.655Z,97772.00
2022-11-29T03:18:03.632Z,97770.38
2022-11-29T03:20:46.392Z,97779.22
2022-11-29T03:23:25.516Z,97770.16
2022-11-29T03:25:58.863Z,97773.63
2022-11-29T03:28:32.973Z,97765.63
2022-11-29T03:31:08.781Z,97770.97
2022-11-29T03:33:46.663Z,97771.53
2022-11-29T03:36:22.787Z,97767.81
2022-11-29T03:38:56.239Z,97776.44
2022-11-29T03:41:29.443Z,97778.88
2022-11-29T03:44:03.612Z,97777.25
2022-11-29T03:46:39.398Z,97781.56
2022-11-29T03:49:13.627Z,97785.84
2022-11-29T03:51:55.776Z,97775.38
2022-11-29T03:54:29.560Z,97786.66
2022-11-29T03:56:58.131Z,97785.63
2022-11-29T03:59:39.078Z,97787.72
2022-11-29T04:02:48.232Z,97789.34
2022-11-29T04:05:41.588Z,97789.56
2022-11-29T04:08:42.464Z,97786.66
2022-11-29T04:11:55.795Z,97779.44
2022-11-29T04:14:34.971Z,97786.19
2022-11-29T04:17:43.101Z,97786.19
2022-11-29T04:20:42.032Z,97790.75
2022-11-29T04:23:33.565Z,97790.50
2022-11-29T04:26:29.687Z,97801.78
2022-11-29T04:29:14.935Z,97799.59
2022-11-29T04:32:02.684Z,97800.16
2022-11-29T04:34:58.604Z,97800.97
2022-11-29T04:37:55.926Z,97803.31
2022-11-29T04:40:37.600Z,97807.63
2022-11-29T04:43:20.948Z,97812.97
2022-11-29T04:46:21.552Z,97814.00
2022-11-29T04:49:20.241Z,97814.00
2022-11-29T04:52:08.578Z,97819.72
2022-11-29T04:54:44.594Z,97820.53
2022-11-29T04:57:23.874Z,97817.63
2022-11-29T05:00:01.337Z,97818.19
2022-11-29T05:02:36.353Z,97823.19
2022-11-29T05:05:19.663Z,97811.22
2022-11-29T05:07:54.956Z,97821.94
2022-11-29T05:10:29.943Z,97823.78
2022-11-29T05:13:08.391Z,97820.28
2022-11-29T05:15:56.921Z,97827.28
2022-11-29T05:18:36.826Z,97827.75
2022-11-29T05:21:12.415Z,97829.94
2022-11-29T05:23:50.016Z,97832.88
2022-11-29T05:26:27.094Z,97829.59
2022-11-29T05:29:03.164Z,97838.91
2022-11-29T05:31:46.863Z,97843.22
2022-11-29T05:34:39.746Z,97842.63
2022-11-29T05:37:23.187Z,97848.09
2022-11-29T05:40:04.744Z,97844.03
2022-11-29T05:43:05.276Z,97845.06
2022-11-29T05:45:37.396Z,97841.72
2022-11-29T05:48:12.231Z,97856.38
2022-11-29T05:50:47.619Z,97842.16
2022-11-29T05:53:24.747Z,97842.41
2022-11-29T05:56:06.986Z,97836.69
2022-11-29T05:58:43.398Z,97849.03
2022-11-29T06:01:23.929Z,97852.53
2022-11-29T06:04:01.374Z,97854.84
2022-11-29T06:06:39.646Z,97861.84
2022-11-29T06:09:16.213Z,97861.00
2022-11-29T06:11:48.091Z,97863.69
2022-11-29T06:14:34.301Z,97860.19
2022-11-29T06:17:26.001Z,97864.50
2022-11-29T06:20:11.172Z,97869.41
2022-11-29T06:22:59.624Z,97875.22
2022-11-29T06:25:47.285Z,97881.38
2022-11-29T06:28:29.463Z,97883.00
2022-11-29T06:31:03.905Z,97887.53
2022-11-29T06:33:40.499Z,97881.59
2022-11-29T06:36:17.817Z,97888.25
2022-11-29T06:38:46.036Z,97885.34
2022-11-29T06:41:20.599Z,97888.47
2022-11-29T06:43:50.039Z,97893.38
2022-11-29T06:46:28.132Z,97898.72
2022-11-29T06:49:03.985Z,97897.44
2022-11-29T06:51:38.313Z,97903.59
2022-11-29T06:54:20.667Z,97898.47
2022-11-29T06:57:04.154Z,97896.63
2022-11-29T06:59:45.338Z,97901.97
2022-11-29T07:02:28.944Z,97912.69
2022-11-29T07:05:11.166Z,97909.66
2022-11-29T07:07:40.157Z,97918.03
2022-11-29T07:10:15.201Z,97907.78
2022-11-29T07:12:45.814Z,97920.72
2022-11-29T07:15:18.765Z,97918.03
2022-11-29T07:17:58.749Z,97922.78
2022-11-29T07:20:38.214Z,97916.03
2022-11-29T07:23:14.681Z,97932.00
2022-11-29T07:25:53.725Z,97927.78
2022-11-29T07:28:37.290Z,97932.09
2022-11-29T07:31:11.876Z,97931.06
2022-11-29T07:33:50.985Z,97937.44
2022-11-29T07:36:30.732Z,97938.25
2022-11-29T07:39:11.522Z,97941.06
2022-11-29T07:41:46.383Z,97934.31
2022-11-29T07:44:28.631Z,97929.19
2022-11-29T07:46:56.654Z,97941.31
2022-11-29T07:49:24.764Z,97939.66
2022-11-29T07:51:52.782Z,97939.31
2022-11-29T07:54:22.139Z,97936.41
2022-11-29T07:56:50.259Z,97941.53
2022-11-29T07:59:20.207Z,97938.63
2022-11-29T08:01:48.351Z,97946.41
2022-11-29T08:04:17.161Z,97950.16
2022-11-29T08:06:45.248Z,97948.63
2022-11-29T08:09:13.162Z,97950.50
2022-11-29T08:11:41.213Z,97949.47
2022-11-29T08:14:09.505Z,97955.75
2022-11-29T08:16:39.048Z,97952.50
2022-11-29T08:19:07.215Z,97950.28
2022-11-29T08:21:35.188Z,97943.53
2022-11-29T08:24:03.133Z,97961.56
2022-11-29T08:26:31.782Z,97962.38
2022-11-29T08:28:59.961Z,97964.00
2022-11-29T08:31:27.897Z,97962.38
2022-11-29T08:33:57.396Z,97963.44
2022-11-29T08:36:25.350Z,97970.31
2022-11-29T08:39:01.268Z,97970.53
2022-11-29T08:41:32.142Z,97965.78
2022-11-29T08:44:00.213Z,97967.88
2022-11-29T08:46:48.558Z,97971.13
2022-11-29T08:49:18.467Z,97969.63
2022-11-29T08:51:46.386Z,97977.88
2022-11-29T08:54:13.505Z,97971.84
2022-11-29T08:59:29.400Z,97976.97
2022-11-29T09:01:57.452Z,97984.53
2022-11-29T09:04:26.931Z,97988.84
2022-11-29T09:06:54.948Z,97991.88
2022-11-29T09:09:23.051Z,97987.19
2022-11-29T09:11:52.225Z,97991.50
2022-11-29T09:14:22.331Z,97990.22
2022-11-29T09:16:50.351Z,97984.19
2022-11-29T09:19:18.517Z,97993.75
2022-11-29T09:21:47.941Z,97994.31
2022-11-29T09:24:16.263Z,97986.88
2022-11-29T09:26:48.245Z,97994.09
2022-11-29T09:29:17.741Z,97995.03
2022-11-29T09:31:46.071Z,97993.97
2022-11-29T09:34:14.185Z,98003.41
2022-11-29T09:36:44.226Z,98002.94
2022-11-29T09:39:13.795Z,98004.00
2022-11-29T09:41:58.493Z,98010.41
2022-11-29T09:44:34.308Z,98011.56
2022-11-29T09:47:18.176Z,98010.88
2022-11-29T09:50:13.222Z,98015.66
2022-11-29T09:52:51.731Z,98017.53
2022-11-29T09:55:43.107Z,98018.34
2022-11-29T09:58:18.049Z,98015.66
2022-11-29T10:00:50.595Z,98024.16
2022-11-29T10:03:25.537Z,98017.63
2022-11-29T10:06:00.044Z,98028.13
2022-11-29T10:08:34.115Z,98022.19
2022-11-29T10:11:14.501Z,98025.44
2022-11-29T10:13:46.664Z,98020.19
2022-11-29T10:16:20.006Z,98027.06
2022-11-29T10:18:52.544Z,98031.28
2022-11-29T10:21:26.216Z,98020.91
2022-11-29T10:23:58.773Z,98019.63
2022-11-29T10:26:34.777Z,98015.44
2022-11-29T10:29:04.038Z,98014.16
2022-11-29T10:31:40.244Z,98016.00
2022-11-29T10:34:14.367Z,98023.47
2022-11-29T10:36:45.999Z,98015.78
2022-11-29T10:39:22.405Z,98015.88
2022-11-29T10:41:56.955Z,98009.13
2022-11-29T10:44:26.054Z,98011.81
2022-11-29T10:46:54.860Z,98011.00
2022-11-29T10:49:27.479Z,98003.06
2022-11-29T10:51:55.678Z,98017.88
2022-11-29T10:54:35.015Z,98019.84
2022-11-29T10:57:14.300Z,98015.78
2022-11-29T10:59:42.612Z,98017.16
2022-11-29T11:02:19.693Z,98014.16
2022-11-29T11:04:50.316Z,98014.50
2022-11-29T11:07:29.020Z,98017.16
2022-11-29T11:09:58.904Z,98019.50
2022-11-29T11:12:30.689Z,98021.13
2022-11-29T11:15:27.695Z,98020.19
2022-11-29T11:18:00.167Z,98020.66
2022-11-29T11:20:31.552Z,98019.84
2022-11-29T11:23:02.047Z,98019.63
2022-11-29T11:25:34.763Z,98020.91
2022-11-29T11:28:20.465Z,98013.91
2022-11-29T11:30:53.520Z,98011.22
2022-11-29T11:33:25.275Z,98024.41
2022-11-29T11:36:09.741Z,98017.63
2022-11-29T11:38:39.239Z,98016.00
2022-11-29T11:41:17.989Z,98016.59
2022-11-29T11:43:54.507Z,98023.47
2022-11-29T11:46:22.655Z,98021.38
2022-11-29T11:48:52.672Z,98027.44
2022-11-29T11:51:24.303Z,98023.47
2022-11-29T11:53:55.736Z,98035.22
2022-11-29T11:56:26.256Z,98035.81
2022-11-29T11:58:58.159Z,98028.72
2022-11-29T12:01:30.796Z,98036.63
2022-11-29T12:04:04.670Z,98031.97
2022-11-29T12:06:48.018Z,98032.31
2022-11-29T12:09:24.809Z,98030.47
2022-11-29T12:12:01.505Z,98035.81
2022-11-29T12:14:42.576Z,98029.66
2022-11-29T12:17:20.114Z,98042.13
2022-11-29T12:20:00.681Z,98035.47
2022-11-29T12:22:34.080Z,98041.75
2022-11-29T12:25:07.595Z,98045.25
2022-11-29T12:27:35.592Z,98052.72
2022-11-29T12:30:12.744Z,98043.28
2022-11-29T12:33:01.160Z,98056.56
2022-11-29T12:35:54.696Z,98059.47
2022-11-29T12:38:50.075Z,98060.16
2022-11-29T12:41:30.477Z,98062.84
2022-11-29T12:44:08.194Z,98061.91
2022-11-29T12:46:38.562Z,98059.00
2022-11-29T12:49:17.383Z,98060.97
2022-11-29T12:51:54.620Z,98065.75
2022-11-29T12:54:41.442Z,98065.28
2022-11-29T12:57:16.788Z,98052.00
2022-11-29T13:00:05.359Z,98060.16
2022-11-29T13:02:48.726Z,98060.75
2022-11-29T13:05:25.243Z,98062.16
2022-11-29T13:08:12.553Z,98061.56
2022-11-29T13:10:57.032Z,98059.47
2022-11-29T13:13:36.204Z,98062.72
2022-11-29T13:16:10.150Z,98075.06
2022-11-29T13:18:52.798Z,98071.22
2022-11-29T13:21:28.942Z,98067.97
2022-11-29T13:24:09.739Z,98071.47
2022-11-29T13:26:40.140Z,98073.09
2022-11-29T13:29:14.433Z,98071.69
2022-11-29T13:31:43.207Z,98076.13
2022-11-29T13:34:18.900Z,98075.78
2022-11-29T13:36:55.293Z,98073.31
2022-11-29T13:39:36.710Z,98074.97
2022-11-29T13:42:08.761Z,98075.41
2022-11-29T13:44:46.021Z,98086.59
2022-11-29T13:47:15.782Z,98082.06
2022-11-29T13:50:02.598Z,98085.09
2022-11-29T13:52:43.047Z,98082.53
2022-11-29T13:55:31.523Z,98086.94
2022-11-29T13:58:22.280Z,98087.06
2022-11-29T14:00:52.272Z,98094.88
2022-11-29T14:03:31.589Z,98092.28
2022-11-29T14:06:13.968Z,98099.06
2022-11-29T14:09:22.174Z,98100.56
2022-11-29T14:11:59.435Z,98102.06
2022-11-29T14:14:32.009Z,98099.75
2022-11-29T14:17:02.885Z,98107.91
2022-11-29T14:19:34.308Z,98098.34
2022-11-29T14:22:33.553Z,98100.19
2022-11-29T14:25:21.720Z,98095.44
2022-11-29T14:28:02.686Z,98098.69
2022-11-29T14:30:46.511Z,98105.19
2022-11-29T14:33:32.911Z,98101.69
2022-11-29T14:36:14.519Z,98104.97
2022-11-29T14:38:50.970Z,98105.66
2022-11-29T14:41:28.683Z,98112.66
2022-11-29T14:44:15.724Z,98112.97
2022-11-29T14:46:44.181Z,98112.84
2022-11-29T14:49:23.518Z,98109.69
2022-11-29T14:52:17.949Z,98109.47
2022-11-29T14:54:59.884Z,98108.28
2022-11-29T14:58:06.264Z,98115.97
2022-11-29T15:00:44.580Z,98119.69
2022-11-29T15:03:16.637Z,98124.50
2022-11-29T15:05:46.959Z,98121.81
2022-11-29T15:08:21.979Z,98122.38
2022-11-29T15:10:54.624Z,98127.28
2022-11-29T15:13:27.200Z,98141.47
2022-11-29T15:16:12.957Z,98133.66
2022-11-29T15:19:03.014Z,98135.50
2022-11-29T15:21:38.931Z,98136.09
2022-11-29T15:24:11.992Z,98132.16
2022-11-29T15:26:56.675Z,98128.66
2022-11-29T15:29:25.307Z,98133.06
2022-11-29T15:31:55.396Z,98139.59
2022-11-29T15:34:31.590Z,98150.91
2022-11-29T15:36:59.527Z,98143.09
2022-11-29T15:39:30.860Z,98147.25
2022-11-29T15:42:04.572Z,98149.34
2022-11-29T15:44:33.939Z,98153.06
2022-11-29T15:47:22.030Z,98148.75
2022-11-29T15:49:50.762Z,98155.53
2022-11-29T15:52:25.820Z,98161.09
2022-11-29T15:55:00.085Z,98173.91
2022-11-29T15:57:35.192Z,98166.91
2022-11-29T16:00:07.167Z,98170.03
2022-11-29T16:02:37.805Z,98169.34
2022-11-29T16:05:15.855Z,98172.03
2022-11-29T16:07:46.492Z,98175.38
2022-11-29T16:10:17.970Z,98181.84
2022-11-29T16:12:55.426Z,98180.28
2022-11-29T16:15:30.725Z,98183.56
2022-11-29T16:18:18.989Z,98180.50
2022-11-29T16:21:00.293Z,98187.66
2022-11-29T16:23:34.848Z,98186.84
2022-11-29T16:26:08.277Z,98186.91
2022-11-29T16:28:43.206Z,98190.84
2022-11-29T16:31:18.020Z,98193.31
2022-11-29T16:33:47.683Z,98192.72
2022-11-29T16:36:19.988Z,98194.13
2022-11-29T16:38:50.494Z,98186.53
2022-11-29T16:41:33.548Z,98195.03
2022-11-29T16:44:04.908Z,98199.25
2022-11-29T16:46:40.052Z,98201.88
2022-11-29T16:49:36.454Z,98205.13
2022-11-29T16:52:18.641Z,98203.06
2022-11-29T16:54:46.548Z,98204.69
2022-11-29T16:57:14.534Z,98203.06
2022-11-29T16:59:43.912Z,98197.69
2022-11-29T17:02:12.625Z,98198.75
2022-11-29T17:04:40.811Z,98202.91
2022-11-29T17:07:13.886Z,98207.44
2022-11-29T17:09:41.908Z,98212.03
2022-11-29T17:12:14.229Z,98204.25
2022-11-29T17:14:43.874Z,98203.03
2022-11-29T17:17:14.873Z,98212.03
2022-11-29T17:19:42.785Z,98201.94
2022-11-29T17:22:10.608Z,98207.97
2022-11-29T17:24:44.787Z,98209.81
2022-11-29T17:27:15.366Z,98211.88
2022-11-29T17:29:44.573Z,98217.25
2022-11-29T17:32:12.416Z,98212.34
2022-11-29T17:34:40.288Z,98211.75
2022-11-29T17:37:08.184Z,98216.06
2022-11-29T17:39:36.022Z,98221.19
2022-11-29T17:42:03.878Z,98221.41
2022-11-29T17:44:33.969Z,98223.25
2022-11-29T17:47:04.628Z,98227.78
2022-11-29T17:49:32.442Z,98230.56
2022-11-29T17:52:00.223Z,98227.34
2022-11-29T17:54:28.072Z,98224.06
2022-11-29T17:56:56.427Z,98233.53
2022-11-29T17:59:24.366Z,98223.94
2022-11-29T18:01:52.391Z,98236.72
2022-11-29T18:04:21.978Z,98236.03
2022-11-29T18:06:50.683Z,98232.41
2022-11-29T18:09:20.004Z,98231.34
2022-11-29T18:11:58.595Z,98235.88
2022-11-29T18:14:29.325Z,98240.81
2022-11-29T18:17:01.036Z,98231.56
2022-11-29T18:19:31.368Z,98243.69
2022-11-29T18:21:59.230Z,98245.94
2022-11-29T18:24:27.049Z,98247.63
2022-11-29T18:26:54.902Z,98249.69
2022-11-29T18:29:23.193Z,98252.97
2022-11-29T18:31:51.790Z,98251.56
2022-11-29T18:34:19.653Z,98254.25
2022-11-29T18:36:49.803Z,98257.13
2022-11-29T18:39:20.318Z,98257.72
2022-11-29T18:41:50.358Z,98263.91
2022-11-29T18:44:20.275Z,98266.34
2022-11-29T18:46:48.770Z,98270.66
2022-11-29T18:49:18.323Z,98268.81
2022-11-29T18:51:48.446Z,98274.75
2022-11-29T18:54:17.830Z,98272.53
2022-11-29T18:56:46.635Z,98274.16
2022-11-29T18:59:17.916Z,98273.72
2022-11-29T19:01:48.020Z,98267.78
2022-11-29T19:04:18.310Z,98265.69
2022-11-29T19:06:46.968Z,98273.28
2022-11-29T19:09:20.967Z,98276.41
2022-11-29T19:11:49.774Z,98271.03
2022-11-29T19:14:18.052Z,98270.00
2022-11-29T19:16:47.580Z,98266.78
2022-11-29T19:19:15.464Z,98263.91
2022-11-29T19:21:43.567Z,98262.59
2022-11-29T19:24:15.143Z,98254.84
2022-11-29T19:26:46.001Z,98267.19
2022-11-29T19:29:14.534Z,98256.91
2022-11-29T19:31:43.069Z,98252.22
2022-11-29T19:34:11.266Z,98258.16
2022-11-29T19:36:43.588Z,98263.97
2022-11-29T19:39:14.306Z,98260.31
2022-11-29T19:41:45.541Z,98269.16
2022-11-29T19:44:13.779Z,98276.13
2022-11-29T19:46:45.751Z,98269.97
2022-11-29T19:49:15.528Z,98275.16
2022-11-29T19:51:44.196Z,98281.47
2022-11-29T19:54:12.945Z,98280.28
2022-11-29T19:56:41.136Z,98278.91
2022-11-29T19:59:10.553Z,98285.03
2022-11-29T20:01:42.395Z,98289.94
2022-11-29T20:04:12.036Z,98292.41
2022-11-29T20:06:40.119Z,98295.91
2022-11-29T20:09:08.282Z,98293.00
2022-11-29T20:11:36.291Z,98280.44
2022-11-29T20:14:08.540Z,98289.06
2022-11-29T20:16:39.877Z,98283.06
2022-11-29T20:19:12.231Z,98287.00
2022-11-29T20:21:44.130Z,98289.25
2022-11-29T20:24:14.628Z,98289.69
2022-11-29T20:26:44.556Z,98291.53
2022-11-29T20:29:13.637Z,98300.38
2022-11-29T20:31:49.546Z,98291.53
2022-11-29T20:34:21.889Z,98296.66
2022-11-29T20:37:17.175Z,98294.81
2022-11-29T20:39:51.293Z,98290.72
2022-11-29T20:42:43.977Z,98295.91
2022-11-29T20:45:14.406Z,98295.09
2022-11-29T20:47:50.523Z,98294.25
2022-11-29T20:50:23.131Z,98299.41
2022-11-29T20:53:06.345Z,98307.63
2022-11-29T20:55:38.704Z,98309.94
2022-11-29T20:58:08.334Z,98300.28
2022-11-29T21:00:36.785Z,98305.69
2022-11-29T21:03:05.979Z,98302.19
2022-11-29T21:05:33.997Z,98303.47
2022-11-29T21:08:03.027Z,98309.63
2022-11-29T21:10:31.027Z,98307.16
2022-11-29T21:12:59.448Z,98321.13
2022-11-29T21:15:28.215Z,98321.75
2022-11-29T21:17:56.739Z,98308.38
2022-11-29T21:20:28.499Z,98315.97
2022-11-29T21:23:02.911Z,98306.09
2022-11-29T21:25:43.126Z,98312.84
2022-11-29T21:28:14.465Z,98309.94
2022-11-29T21:30:43.034Z,98312.16
2022-11-29T21:33:12.067Z,98308.66
2022-11-29T21:35:41.621Z,98307.34
2022-11-29T21:38:14.514Z,98311.25
2022-11-29T21:40:42.380Z,98306.34
2022-11-29T21:43:10.262Z,98305.16
2022-11-29T21:45:38.145Z,98299.78
2022-11-29T21:48:29.707Z,98313.97
2022-11-29T21:50:58.881Z,98311.97
2022-11-29T21:53:27.893Z,98307.81
2022-11-29T21:55:59.224Z,98312.56
2022-11-29T21:58:27.849Z,98318.34
2022-11-29T22:00:55.780Z,98317.13
2022-11-29T22:03:23.707Z,98315.31
2022-11-29T22:05:51.635Z,98315.09
2022-11-29T22:08:21.068Z,98320.25
2022-11-29T22:10:48.944Z,98321.28
2022-11-29T22:13:16.852Z,98318.81
2022-11-29T22:15:45.069Z,98321.28
2022-11-29T22:18:12.980Z,98327.81
2022-11-29T22:20:40.890Z,98324.78
2022-11-29T22:23:08.723Z,98325.53
2022-11-29T22:25:37.899Z,98340.56
2022-11-29T22:28:05.791Z,98335.59
2022-11-29T22:30:33.581Z,98331.88
2022-11-29T22:33:01.747Z,98335.97
2022-11-29T22:35:29.597Z,98326.09
2022-11-29T22:37:57.535Z,98321.78
2022-11-29T22:40:25.470Z,98322.66
2022-11-29T22:42:54.938Z,98317.91
2022-11-29T22:45:22.711Z,98318.50
2022-11-29T22:47:50.544Z,98320.81
2022-11-29T22:50:18.469Z,98319.97
2022-11-29T22:52:46.424Z,98312.19
2022-11-29T22:55:14.326Z,98315.88
2022-11-29T22:57:42.135Z,98318.78
2022-11-29T23:00:13.897Z,98315.72
2022-11-29T23:02:41.783Z,98330.75
2022-11-29T23:05:09.856Z,98321.91
2022-11-29T23:07:37.734Z,98323.94
2022-11-29T23:10:06.457Z,98324.16
2022-11-29T23:12:34.255Z,98321.50
2022-11-29T23:15:02.780Z,98322.91
2022-11-29T23:17:31.957Z,98327.81
2022-11-29T23:19:59.730Z,98331.72
2022-11-29T23:22:27.846Z,98335.81
2022-11-29T23:24:55.719Z,98325.50
2022-11-29T23:27:24.004Z,98334.56
2022-11-29T23:29:51.808Z,98332.69
2022-11-29T23:32:19.647Z,98323.88
2022-11-29T23:34:49.289Z,98332.31
2022-11-29T23:37:17.151Z,98324.94
2022-11-29T23:39:45.015Z,98328.88
2022-11-29T23:42:12.808Z,98326.63
2022-11-29T23:44:40.594Z,98324.97
2022-11-29T23:47:08.427Z,98326.03
2022-11-29T23:49:39.781Z,98322.53
2022-11-29T23:52:08.962Z,98318.66
2022-11-29T23:54:36.890Z,98318.25
2022-11-29T23:57:04.827Z,98324.63
2022-11-29T23:59:32.698Z,98320.94
